Time,TemperatureF,DewpointF,PressureIn,WindDirection,WindDirectionDegrees,WindSpeedMPH,WindSpeedGustMPH,Humidity,HourlyPrecipIn,Conditions,Clouds,dailyrainin,SolarRadiationWatts/m^2,SoftwareType,DateUTC
2013-11-13 00:00:00,33.8,30.6,30.36,NNW,331,2.0,3.0,88,0.00,,,0.00,0,Wunderground v.1.15,2013-11-13 05:00:00,
2013-11-13 00:30:00,32.9,30.8,30.36,NNW,338,1.0,2.0,92,0.00,,,0.00,0,Wunderground v.1.15,2013-11-13 05:30:00,
2013-11-13 01:00:00,32.9,31.1,30.35,NNW,338,1.0,1.0,93,0.00,,,0.00,0,Wunderground v.1.15,2013-11-13 06:00:00,
2013-11-13 01:30:00,33.0,31.2,30.33,NE,46,0.0,0.0,93,0.00,,,0.00,0,Wunderground v.1.15,2013-11-13 06:30:00,
2013-11-13 02:00:00,32.6,30.5,30.34,NW,315,1.0,1.0,92,0.00,,,0.00,0,Wunderground v.1.15,2013-11-13 07:00:00,
2013-11-13 02:30:00,31.9,30.1,30.34,NE,44,0.0,0.0,93,0.00,,,0.00,0,Wunderground v.1.15,2013-11-13 07:30:00,
2013-11-13 03:00:00,31.2,29.4,30.35,North,355,0.0,0.0,93,0.00,,,0.00,0,Wunderground v.1.15,2013-11-13 08:00:00,
2013-11-13 07:00:00,30.3,23.6,30.43,NNW,346,2.0,2.0,76,0.00,,,0.00,5,Wunderground v.1.15,2013-11-13 12:00:00,
2013-11-13 07:30:00,31.0,23.7,30.44,NNE,19,2.0,2.0,74,0.00,,,0.00,39,Wunderground v.1.15,2013-11-13 12:30:00,
2013-11-13 08:00:00,32.9,24.9,30.46,North,11,1.0,1.0,72,0.00,,,0.00,65,Wunderground v.1.15,2013-11-13 13:00:00,
2013-11-13 08:30:00,35.1,26.3,30.46,WNW,294,2.0,2.0,70,0.00,,,0.00,309,Wunderground v.1.15,2013-11-13 13:30:00,
2013-11-13 09:00:00,37.2,26.5,30.46,NE,36,3.0,3.0,65,0.00,,,0.00,401,Wunderground v.1.15,2013-11-13 14:00:00,
2013-11-13 09:30:00,38.4,26.1,30.47,NW,312,4.0,4.0,61,0.00,,,0.01,494,Wunderground v.1.15,2013-11-13 14:30:00,
2013-11-13 10:00:00,40.9,26.4,30.47,NNW,340,3.0,3.0,56,0.00,,,0.02,554,Wunderground v.1.15,2013-11-13 15:00:00,
2013-11-13 10:30:00,41.4,23.2,30.47,WNW,302,5.0,5.0,48,0.00,,,0.03,605,Wunderground v.1.15,2013-11-13 15:30:00,
2013-11-13 11:00:00,43.4,24.0,30.46,NNE,22,3.0,3.0,46,0.00,,,0.04,629,Wunderground v.1.15,2013-11-13 16:00:00,
2013-11-13 11:30:00,43.8,23.8,30.45,ENE,63,3.0,3.0,45,0.00,,,0.04,334,Wunderground v.1.15,2013-11-13 16:30:00,
2013-11-13 12:00:00,44.5,25.0,30.44,NE,47,3.0,3.0,46,0.00,,,0.04,220,Wunderground v.1.15,2013-11-13 17:00:00,
2013-11-13 12:30:00,45.1,23.3,30.43,North,360,3.0,3.0,42,0.00,,,0.04,116,Wunderground v.1.15,2013-11-13 17:30:00,
2013-11-13 13:00:00,45.8,22.8,30.42,WNW,290,3.0,3.0,40,0.00,,,0.04,90,Wunderground v.1.15,2013-11-13 18:00:00,
2013-11-13 13:30:00,46.3,23.9,30.42,North,5,3.0,3.0,41,0.00,,,0.04,367,Wunderground v.1.15,2013-11-13 18:30:00,
2013-11-13 14:00:00,47.0,22.0,30.41,NNE,26,2.0,2.0,37,0.00,,,0.04,499,Wunderground v.1.15,2013-11-13 19:00:00,
2013-11-13 14:30:00,46.8,23.1,30.41,NW,304,3.0,3.0,39,0.00,,,0.04,427,Wunderground v.1.15,2013-11-13 19:30:00,
2013-11-13 15:00:00,46.3,25.0,30.41,NNE,18,3.0,3.0,43,0.00,,,0.04,269,Wunderground v.1.15,2013-11-13 20:00:00,
2013-11-13 15:30:00,46.6,22.3,30.42,NNE,29,2.0,4.0,38,0.00,,,0.04,130,Wunderground v.1.15,2013-11-13 20:30:00,
2013-11-13 16:00:00,44.7,25.2,30.42,North,10,2.0,3.0,46,0.00,,,0.04,30,Wunderground v.1.15,2013-11-13 21:00:00,
2013-11-13 16:30:00,43.6,26.2,30.42,NW,308,1.0,3.0,50,0.00,,,0.04,21,Wunderground v.1.15,2013-11-13 21:30:00,
2013-11-13 17:00:00,41.8,26.8,30.43,North,355,1.0,1.0,55,0.00,,,0.04,7,Wunderground v.1.15,2013-11-13 22:00:00,
2013-11-13 17:30:00,37.9,26.8,30.45,NNE,24,0.0,0.0,64,0.00,,,0.04,0,Wunderground v.1.15,2013-11-13 22:30:00,
2013-11-13 18:00:00,34.3,26.2,30.46,NNE,24,0.0,0.0,72,0.00,,,0.04,0,Wunderground v.1.15,2013-11-13 23:00:00,
2013-11-13 18:30:00,32.0,25.9,30.47,NNE,24,0.0,0.0,78,0.00,,,0.04,0,Wunderground v.1.15,2013-11-13 23:30:00,
2013-11-13 19:00:00,30.3,25.5,30.47,NNE,24,0.0,0.0,82,0.00,,,0.04,0,Wunderground v.1.15,2013-11-14 00:00:00,
2013-11-13 19:30:00,29.2,25.5,30.48,NNE,24,0.0,0.0,86,0.00,,,0.04,0,Wunderground v.1.15,2013-11-14 00:30:00,
2013-11-13 20:00:00,28.3,25.2,30.47,NNE,24,0.0,0.0,88,0.00,,,0.04,0,Wunderground v.1.15,2013-11-14 01:00:00,
2013-11-13 20:30:00,28.0,25.2,30.48,NNE,24,0.0,0.0,89,0.00,,,0.04,0,Wunderground v.1.15,2013-11-14 01:30:00,
2013-11-13 21:00:00,27.4,24.9,30.48,NNE,24,0.0,0.0,90,0.00,,,0.04,0,Wunderground v.1.15,2013-11-14 02:00:00,
2013-11-13 21:30:00,27.2,24.9,30.49,NNE,24,0.0,0.0,91,0.00,,,0.04,0,Wunderground v.1.15,2013-11-14 02:30:00,
2013-11-13 22:00:00,26.7,24.4,30.48,NNE,24,0.0,0.0,91,0.00,,,0.04,0,Wunderground v.1.15,2013-11-14 03:00:00,
2013-11-13 22:30:00,26.5,24.5,30.47,NNE,24,0.0,0.0,92,0.00,,,0.04,0,Wunderground v.1.15,2013-11-14 03:30:00,
2013-11-13 23:00:00,26.0,24.0,30.47,NNE,24,0.0,0.0,92,0.00,,,0.04,0,Wunderground v.1.15,2013-11-14 04:00:00,
2013-11-13 23:30:00,25.8,24.1,30.46,NNE,24,0.0,0.0,93,0.00,,,0.04,0,Wunderground v.1.15,2013-11-14 04:30:00,